createdAt,value
2018-05-06T00:00:29.516Z,12.40
2018-05-06T00:02:55.899Z,12.40
2018-05-06T00:05:22.274Z,12.40
2018-05-06T00:07:48.585Z,12.40
2018-05-06T00:10:15.039Z,12.40
2018-05-06T00:12:41.387Z,12.40
2018-05-06T00:15:07.820Z,12.30
2018-05-06T00:17:34.085Z,12.40
2018-05-06T00:20:01.149Z,12.40
2018-05-06T00:22:27.481Z,12.40
2018-05-06T00:24:53.808Z,12.40
2018-05-06T00:27:20.132Z,12.40
2018-05-06T00:29:46.481Z,12.40
2018-05-06T00:32:12.788Z,12.40
2018-05-06T00:34:39.133Z,12.40
2018-05-06T00:37:05.493Z,12.40
2018-05-06T00:39:31.825Z,12.30
2018-05-06T00:41:58.165Z,12.30
2018-05-06T00:44:24.522Z,12.30
2018-05-06T00:46:50.866Z,12.30
2018-05-06T00:49:17.239Z,12.30
2018-05-06T00:51:43.571Z,12.20
2018-05-06T00:54:22.258Z,12.10
2018-05-06T00:59:49.344Z,12.00
2018-05-06T01:02:19.661Z,11.90
2018-05-06T01:04:48.100Z,11.90
2018-05-06T01:07:14.456Z,11.80
2018-05-06T01:09:40.836Z,11.80
2018-05-06T01:12:07.152Z,11.80
2018-05-06T01:14:33.482Z,11.80
2018-05-06T01:17:00.543Z,11.70
2018-05-06T01:19:29.981Z,11.70
2018-05-06T01:21:56.304Z,11.70
2018-05-06T01:24:32.966Z,11.60
2018-05-06T01:26:59.276Z,11.60
2018-05-06T01:29:26.391Z,11.50
2018-05-06T01:31:53.520Z,11.50
2018-05-06T01:34:19.860Z,11.50
2018-05-06T01:36:46.313Z,11.60
2018-05-06T01:39:12.692Z,11.60
2018-05-06T01:41:39.084Z,11.50
2018-05-06T01:44:06.161Z,11.40
2018-05-06T01:46:32.520Z,11.40
2018-05-06T01:48:58.869Z,11.30
2018-05-06T01:51:25.250Z,11.30
2018-05-06T01:53:51.591Z,11.20
2018-05-06T01:56:17.970Z,11.20
2018-05-06T01:58:44.351Z,11.10
2018-05-06T02:01:10.714Z,11.00
2018-05-06T02:03:37.078Z,11.00
2018-05-06T02:06:04.224Z,10.90
2018-05-06T02:08:30.565Z,10.80
2018-05-06T02:10:56.917Z,10.80
2018-05-06T02:13:23.230Z,10.80
2018-05-06T02:15:49.604Z,10.70
2018-05-06T02:18:16.022Z,10.70
2018-05-06T02:20:42.345Z,10.60
2018-05-06T02:23:09.441Z,10.60
2018-05-06T02:25:35.744Z,10.50
2018-05-06T02:28:02.089Z,10.60
2018-05-06T02:30:28.461Z,10.50
2018-05-06T02:32:54.786Z,10.50
2018-05-06T02:35:21.863Z,10.50
2018-05-06T02:37:48.981Z,10.40
2018-05-06T02:40:15.333Z,10.40
2018-05-06T02:42:43.143Z,10.40
2018-05-06T02:45:09.497Z,10.30
2018-05-06T02:47:35.785Z,10.30
2018-05-06T02:50:02.226Z,10.30
2018-05-06T02:52:28.581Z,10.30
2018-05-06T02:54:54.898Z,10.30
2018-05-06T02:57:21.222Z,10.20
2018-05-06T02:59:47.627Z,10.20
2018-05-06T03:02:13.961Z,10.10
2018-05-06T03:04:41.054Z,10.10
2018-05-06T03:07:07.471Z,10.10
2018-05-06T03:09:33.789Z,10.10
2018-05-06T03:12:00.077Z,10.00
2018-05-06T03:14:26.381Z,10.00
2018-05-06T03:16:52.709Z,10.00
2018-05-06T03:19:19.043Z,10.00
2018-05-06T03:21:45.399Z,9.90
2018-05-06T03:24:11.698Z,9.90
2018-05-06T03:26:38.763Z,9.90
2018-05-06T03:29:05.157Z,9.90
2018-05-06T03:31:31.473Z,9.90
2018-05-06T03:33:58.580Z,9.90
2018-05-06T03:36:24.869Z,9.90
2018-05-06T03:38:51.946Z,9.70
2018-05-06T03:41:19.227Z,9.80
2018-05-06T03:43:45.556Z,9.70
2018-05-06T03:46:11.843Z,9.80
2018-05-06T03:48:38.897Z,9.70
2018-05-06T03:51:05.937Z,9.70
2018-05-06T03:53:32.331Z,9.60
2018-05-06T03:59:28.637Z,9.60
2018-05-06T04:05:03.608Z,9.60
2018-05-06T04:07:29.969Z,9.50
2018-05-06T04:09:56.707Z,9.50
2018-05-06T04:12:23.049Z,9.50
2018-05-06T04:14:49.371Z,9.50
2018-05-06T04:17:15.682Z,9.50
2018-05-06T04:19:42.041Z,9.50
2018-05-06T04:22:08.399Z,9.50
2018-05-06T04:24:34.729Z,9.50
2018-05-06T04:27:01.060Z,9.50
2018-05-06T04:29:27.421Z,9.50
2018-05-06T04:31:53.789Z,9.50
2018-05-06T04:34:20.164Z,9.50
2018-05-06T04:36:46.495Z,9.50
2018-05-06T04:39:12.824Z,9.50
2018-05-06T04:41:39.150Z,9.50
2018-05-06T04:44:05.479Z,9.50
2018-05-06T04:46:31.875Z,9.60
2018-05-06T04:48:58.251Z,9.60
2018-05-06T04:51:24.565Z,9.60
2018-05-06T04:53:50.920Z,9.60
2018-05-06T04:56:17.239Z,9.70
2018-05-06T04:58:43.595Z,9.70
2018-05-06T05:01:10.006Z,9.70
2018-05-06T05:03:36.326Z,9.70
2018-05-06T05:06:02.669Z,9.80
2018-05-06T05:08:29.740Z,9.80
2018-05-06T05:10:56.088Z,9.80
2018-05-06T05:13:23.169Z,9.90
2018-05-06T05:15:55.076Z,9.90
2018-05-06T05:18:21.900Z,9.90
2018-05-06T05:20:48.348Z,9.90
2018-05-06T05:23:14.676Z,10.00
2018-05-06T05:25:41.037Z,10.00
2018-05-06T05:28:07.373Z,10.10
2018-05-06T05:30:33.729Z,10.10
2018-05-06T05:33:04.050Z,10.20
2018-05-06T05:35:30.392Z,10.20
2018-05-06T05:37:56.794Z,10.20
2018-05-06T05:40:23.267Z,10.30
2018-05-06T05:42:49.640Z,10.30
2018-05-06T05:45:15.987Z,10.40
2018-05-06T05:47:42.453Z,10.40
2018-05-06T05:50:08.765Z,10.50
2018-05-06T05:52:35.171Z,10.60
2018-05-06T05:55:01.474Z,10.60
2018-05-06T05:57:27.804Z,10.80
2018-05-06T05:59:54.198Z,10.90
2018-05-06T06:02:21.271Z,11.20
2018-05-06T06:04:47.605Z,11.20
2018-05-06T06:07:13.990Z,11.40
2018-05-06T06:09:41.129Z,11.70
2018-05-06T06:12:07.637Z,11.70
2018-05-06T06:14:34.006Z,11.80
2018-05-06T06:17:01.100Z,12.20
2018-05-06T06:19:27.477Z,12.10
2018-05-06T06:21:54.612Z,12.50
2018-05-06T06:24:21.119Z,12.50
2018-05-06T06:26:47.449Z,12.70
2018-05-06T06:29:13.862Z,12.90
2018-05-06T06:31:40.337Z,13.10
2018-05-06T06:34:06.715Z,13.20
2018-05-06T06:36:33.844Z,13.60
2018-05-06T06:39:00.409Z,13.60
2018-05-06T06:41:27.061Z,13.80
2018-05-06T06:43:54.670Z,14.10
2018-05-06T06:46:21.105Z,14.30
2018-05-06T06:48:47.477Z,14.40
2018-05-06T06:51:14.869Z,14.40
2018-05-06T06:53:41.378Z,14.40
2018-05-06T06:56:08.297Z,14.60
2018-05-06T06:58:34.725Z,14.90
2018-05-06T07:01:01.099Z,15.20
2018-05-06T07:03:31.394Z,15.40
2018-05-06T07:05:58.754Z,15.90
2018-05-06T07:08:25.426Z,15.90
2018-05-06T07:10:52.079Z,16.30
2018-05-06T07:13:20.854Z,16.70
2018-05-06T07:15:47.655Z,17.00
2018-05-06T07:18:14.921Z,17.40
2018-05-06T07:20:44.671Z,17.40
2018-05-06T07:23:11.154Z,17.70
2018-05-06T07:25:38.337Z,17.90
2018-05-06T07:28:05.060Z,18.20
2018-05-06T07:30:32.532Z,18.40
2018-05-06T07:33:00.442Z,18.40
2018-05-06T07:35:27.478Z,18.40
2018-05-06T07:37:58.353Z,18.70
2018-05-06T07:40:31.995Z,19.10
2018-05-06T07:42:58.869Z,19.20
2018-05-06T07:45:26.938Z,19.80
2018-05-06T07:47:54.346Z,19.80
2018-05-06T07:50:21.148Z,19.90
2018-05-06T07:52:47.844Z,19.80
2018-05-06T07:55:14.292Z,19.90
2018-05-06T07:57:41.373Z,20.10
2018-05-06T08:00:07.795Z,20.20
2018-05-06T08:02:34.144Z,20.50
2018-05-06T08:05:01.115Z,20.80
2018-05-06T08:07:27.584Z,21.30
2018-05-06T08:09:54.045Z,21.80
2018-05-06T08:12:21.349Z,22.10
2018-05-06T08:14:47.678Z,22.10
2018-05-06T08:17:14.572Z,22.30
2018-05-06T08:19:42.102Z,22.60
2018-05-06T08:22:08.817Z,22.50
2018-05-06T08:24:35.181Z,22.70
2018-05-06T08:27:01.685Z,22.60
2018-05-06T08:29:34.334Z,22.70
2018-05-06T08:32:02.314Z,22.80
2018-05-06T08:34:28.871Z,23.10
2018-05-06T08:36:55.563Z,23.30
2018-05-06T08:39:22.652Z,23.60
2018-05-06T08:41:54.741Z,23.50
2018-05-06T08:44:22.449Z,24.00
2018-05-06T08:46:52.947Z,24.00
2018-05-06T08:49:20.129Z,23.60
2018-05-06T08:51:46.471Z,23.50
2018-05-06T08:54:31.581Z,23.70
2018-05-06T08:56:58.362Z,24.00
2018-05-06T08:59:33.095Z,24.60
2018-05-06T09:01:59.712Z,25.30
2018-05-06T09:04:26.358Z,25.80
2018-05-06T09:06:53.435Z,26.30
2018-05-06T09:09:19.751Z,26.30
2018-05-06T09:11:46.243Z,26.80
2018-05-06T09:14:12.658Z,26.60
2018-05-06T09:16:39.029Z,26.30
2018-05-06T09:19:06.089Z,26.20
2018-05-06T09:21:34.613Z,26.10
2018-05-06T09:24:01.032Z,26.10
2018-05-06T09:29:19.217Z,25.40
2018-05-06T09:31:49.837Z,25.40
2018-05-06T09:34:22.355Z,25.70
2018-05-06T09:36:48.798Z,26.10
2018-05-06T09:39:15.156Z,26.70
2018-05-06T09:41:41.588Z,27.10
2018-05-06T09:44:08.695Z,28.60
2018-05-06T09:46:35.021Z,28.60
2018-05-06T09:49:01.362Z,29.10
2018-05-06T09:51:27.697Z,29.30
2018-05-06T09:53:54.050Z,29.10
2018-05-06T09:56:21.128Z,30.40
2018-05-06T09:58:47.448Z,30.40
2018-05-06T10:01:13.784Z,31.20
2018-05-06T10:03:40.822Z,32.40
2018-05-06T10:06:07.872Z,32.00
2018-05-06T10:08:34.936Z,32.00
2018-05-06T10:11:01.256Z,32.00
2018-05-06T10:13:28.318Z,32.50
2018-05-06T10:15:54.668Z,32.60
2018-05-06T10:18:20.949Z,32.90
2018-05-06T10:20:47.256Z,33.00
2018-05-06T10:23:13.544Z,33.00
2018-05-06T10:25:39.848Z,33.20
2018-05-06T10:28:06.228Z,33.70
2018-05-06T10:30:32.560Z,33.80
2018-05-06T10:32:58.838Z,32.60
2018-05-06T10:35:25.164Z,32.60
2018-05-06T10:37:51.447Z,32.80
2018-05-06T10:40:17.763Z,32.70
2018-05-06T10:42:44.061Z,32.60
2018-05-06T10:45:10.370Z,32.50
2018-05-06T10:47:36.701Z,32.20
2018-05-06T10:50:03.045Z,31.80
2018-05-06T10:52:30.417Z,31.60
2018-05-06T10:54:56.745Z,31.60
2018-05-06T10:57:23.043Z,31.90
2018-05-06T10:59:49.335Z,32.10
2018-05-06T11:02:15.629Z,32.60
2018-05-06T11:04:41.968Z,33.20
2018-05-06T11:07:08.272Z,33.60
2018-05-06T11:09:34.542Z,34.00
2018-05-06T11:12:02.336Z,33.90
2018-05-06T11:14:28.644Z,33.90
2018-05-06T11:16:55.660Z,34.30
2018-05-06T11:19:21.980Z,34.20
2018-05-06T11:21:48.308Z,34.50
2018-05-06T11:24:14.643Z,34.60
2018-05-06T11:26:40.941Z,34.70
2018-05-06T11:29:07.239Z,34.90
2018-05-06T11:31:34.318Z,34.90
2018-05-06T11:34:00.624Z,34.90
2018-05-06T11:36:27.648Z,34.80
2018-05-06T11:38:53.962Z,34.70
2018-05-06T11:41:20.268Z,34.60
2018-05-06T11:43:46.611Z,34.70
2018-05-06T11:46:12.944Z,34.40
2018-05-06T11:48:39.308Z,34.40
2018-05-06T11:51:07.056Z,33.40
2018-05-06T11:53:33.361Z,33.40
2018-05-06T11:55:59.685Z,32.80
2018-05-06T11:58:26.054Z,32.60
2018-05-06T12:00:52.393Z,32.00
2018-05-06T12:03:18.708Z,31.40
2018-05-06T12:05:45.017Z,31.60
2018-05-06T12:08:11.336Z,31.90
2018-05-06T12:10:37.656Z,32.10
2018-05-06T12:13:04.021Z,32.20
2018-05-06T12:15:30.350Z,32.40
2018-05-06T12:17:56.678Z,32.40
2018-05-06T12:20:23.001Z,32.20
2018-05-06T12:22:49.324Z,32.40
2018-05-06T12:25:15.827Z,32.30
2018-05-06T12:27:48.857Z,32.40
2018-05-06T12:30:15.163Z,32.40
2018-05-06T12:32:43.473Z,32.80
2018-05-06T12:35:09.838Z,32.60
2018-05-06T12:37:36.127Z,32.20
2018-05-06T12:40:02.498Z,32.10
2018-05-06T12:42:28.924Z,32.10
2018-05-06T12:44:55.232Z,32.00
2018-05-06T12:47:21.577Z,32.10
2018-05-06T12:49:48.018Z,32.40
2018-05-06T12:52:14.581Z,31.90
2018-05-06T12:54:41.653Z,31.30
2018-05-06T12:57:08.000Z,31.30
2018-05-06T12:59:34.361Z,30.80
2018-05-06T13:02:01.460Z,31.30
2018-05-06T13:04:27.829Z,31.30
2018-05-06T13:06:55.139Z,31.40
2018-05-06T13:09:22.202Z,31.10
2018-05-06T13:11:48.548Z,31.00
2018-05-06T13:14:18.793Z,30.90
2018-05-06T13:17:04.675Z,30.90
2018-05-06T13:19:43.083Z,30.10
2018-05-06T13:22:13.526Z,30.00
2018-05-06T13:24:50.692Z,29.40
2018-05-06T13:27:24.187Z,29.30
2018-05-06T13:29:51.654Z,29.00
2018-05-06T13:32:23.158Z,28.20
2018-05-06T13:34:50.262Z,28.50
2018-05-06T13:37:16.573Z,28.50
2018-05-06T13:39:48.865Z,28.50
2018-05-06T13:42:15.202Z,28.10
2018-05-06T13:45:06.385Z,28.40
2018-05-06T13:47:32.733Z,28.80
2018-05-06T13:49:59.120Z,28.70
2018-05-06T13:52:27.530Z,28.10
2018-05-06T13:54:53.824Z,28.10
2018-05-06T13:57:21.980Z,28.60
2018-05-06T13:59:49.074Z,28.80
2018-05-06T14:02:15.382Z,28.80
2018-05-06T14:04:41.708Z,28.80
2018-05-06T14:07:08.769Z,28.50
2018-05-06T14:09:35.079Z,28.50
2018-05-06T14:12:01.692Z,28.50
2018-05-06T14:14:28.124Z,28.10
2018-05-06T14:16:55.958Z,28.10
2018-05-06T14:19:37.804Z,28.10
2018-05-06T14:22:04.248Z,28.40
2018-05-06T14:24:43.889Z,28.10
2018-05-06T14:27:11.009Z,28.40
2018-05-06T14:29:57.187Z,28.40
2018-05-06T14:32:23.533Z,27.80
2018-05-06T14:34:50.684Z,27.60
2018-05-06T14:37:17.012Z,27.60
2018-05-06T14:39:43.324Z,27.40
2018-05-06T14:42:09.686Z,27.40
2018-05-06T14:44:36.196Z,27.60
2018-05-06T14:50:13.844Z,27.60
2018-05-06T14:52:40.198Z,27.40
2018-05-06T14:55:07.900Z,27.20
2018-05-06T14:57:34.208Z,27.20
2018-05-06T15:00:01.318Z,27.70
2018-05-06T15:02:27.736Z,27.70
2018-05-06T15:04:54.085Z,27.30
2018-05-06T15:07:21.208Z,26.50
2018-05-06T15:09:47.552Z,26.50
2018-05-06T15:12:13.932Z,26.40
2018-05-06T15:14:40.996Z,26.20
2018-05-06T15:17:07.425Z,26.10
2018-05-06T15:19:33.736Z,26.00
2018-05-06T15:22:00.832Z,26.00
2018-05-06T15:24:27.164Z,26.00
2018-05-06T15:26:55.568Z,25.80
2018-05-06T15:29:21.962Z,25.80
2018-05-06T15:31:48.299Z,25.70
2018-05-06T15:34:14.687Z,25.70
2018-05-06T15:36:43.044Z,25.50
2018-05-06T15:39:09.372Z,25.40
2018-05-06T15:41:35.729Z,25.00
2018-05-06T15:46:59.068Z,24.50
2018-05-06T15:49:25.398Z,24.40
2018-05-06T15:51:51.837Z,24.50
2018-05-06T15:54:18.188Z,24.60
2018-05-06T15:56:44.537Z,24.70
2018-05-06T15:59:10.836Z,24.60
2018-05-06T16:01:38.218Z,24.50
2018-05-06T16:04:11.037Z,24.20
2018-05-06T16:06:37.544Z,24.20
2018-05-06T16:09:04.721Z,24.00
2018-05-06T16:11:32.052Z,23.70
2018-05-06T16:13:59.149Z,23.70
2018-05-06T16:16:25.500Z,23.70
2018-05-06T16:18:51.923Z,23.70
2018-05-06T16:21:18.301Z,23.60
2018-05-06T16:23:45.395Z,23.60
2018-05-06T16:26:11.780Z,23.60
2018-05-06T16:28:38.122Z,23.50
2018-05-06T16:31:05.345Z,23.20
2018-05-06T16:33:31.769Z,23.20
2018-05-06T16:35:58.181Z,23.00
2018-05-06T16:38:24.505Z,22.90
2018-05-06T16:40:50.895Z,22.90
2018-05-06T16:43:18.004Z,22.90
2018-05-06T16:45:44.358Z,22.90
2018-05-06T16:48:10.715Z,22.90
2018-05-06T16:50:37.162Z,22.80
2018-05-06T16:53:03.571Z,22.60
2018-05-06T16:55:30.715Z,22.40
2018-05-06T16:57:57.314Z,22.40
2018-05-06T17:00:23.790Z,22.30
2018-05-06T17:02:50.153Z,22.30
2018-05-06T17:05:16.693Z,22.30
2018-05-06T17:07:43.853Z,22.20
2018-05-06T17:10:10.385Z,22.10
2018-05-06T17:12:37.493Z,21.90
2018-05-06T17:15:03.940Z,21.90
2018-05-06T17:17:30.309Z,21.80
2018-05-06T17:19:56.756Z,21.80
2018-05-06T17:22:23.224Z,21.70
2018-05-06T17:24:49.585Z,21.70
2018-05-06T17:27:16.752Z,21.60
2018-05-06T17:29:43.173Z,21.60
2018-05-06T17:32:10.273Z,21.50
2018-05-06T17:34:36.734Z,21.40
2018-05-06T17:37:03.226Z,21.40
2018-05-06T17:39:29.597Z,21.40
2018-05-06T17:41:56.273Z,21.30
2018-05-06T17:44:36.120Z,21.20
2018-05-06T17:47:04.441Z,21.00
2018-05-06T17:49:31.090Z,20.90
2018-05-06T17:51:57.478Z,20.90
2018-05-06T17:54:23.952Z,20.80
2018-05-06T17:56:50.379Z,20.60
2018-05-06T17:59:16.855Z,20.50
2018-05-06T18:01:44.291Z,20.30
2018-05-06T18:04:10.646Z,20.30
2018-05-06T18:06:37.133Z,20.20
2018-05-06T18:09:03.502Z,20.00
2018-05-06T18:11:30.103Z,19.90
2018-05-06T18:13:56.502Z,19.80
2018-05-06T18:16:23.662Z,19.50
2018-05-06T18:18:50.162Z,19.50
2018-05-06T18:21:16.529Z,19.40
2018-05-06T18:23:43.071Z,19.20
2018-05-06T18:26:09.533Z,19.20
2018-05-06T18:28:38.083Z,19.10
2018-05-06T18:31:04.630Z,18.90
2018-05-06T18:33:31.304Z,18.80
2018-05-06T18:35:59.500Z,18.50
2018-05-06T18:38:26.216Z,18.40
2018-05-06T18:40:52.664Z,18.40
2018-05-06T18:43:19.147Z,18.30
2018-05-06T18:45:45.638Z,18.10
2018-05-06T18:48:12.042Z,18.00
2018-05-06T18:50:38.521Z,17.90
2018-05-06T18:53:04.960Z,17.80
2018-05-06T18:55:31.430Z,17.70
2018-05-06T18:57:58.160Z,17.70
2018-05-06T19:00:24.756Z,17.50
2018-05-06T19:02:51.159Z,17.40
2018-05-06T19:05:17.553Z,17.30
2018-05-06T19:07:44.747Z,17.00
2018-05-06T19:10:11.218Z,17.00
2018-05-06T19:12:38.418Z,16.80
2018-05-06T19:15:04.853Z,16.70
2018-05-06T19:17:31.278Z,16.60
2018-05-06T19:19:58.351Z,16.40
2018-05-06T19:22:25.877Z,16.30
2018-05-06T19:24:52.339Z,16.30
2018-05-06T19:27:18.788Z,16.20
2018-05-06T19:29:45.176Z,16.10
2018-05-06T19:32:11.664Z,16.00
2018-05-06T19:34:38.003Z,15.90
2018-05-06T19:37:04.387Z,15.90
2018-05-06T19:39:31.473Z,15.70
2018-05-06T19:41:57.911Z,15.70
2018-05-06T19:44:24.308Z,15.60
2018-05-06T19:46:50.747Z,15.50
2018-05-06T19:49:17.175Z,15.40
2018-05-06T19:51:43.555Z,15.30
2018-05-06T19:54:09.922Z,15.20
2018-05-06T19:56:37.233Z,15.10
2018-05-06T19:59:03.638Z,15.00
2018-05-06T20:01:30.825Z,15.00
2018-05-06T20:03:57.490Z,14.90
2018-05-06T20:06:24.100Z,14.90
2018-05-06T20:08:50.579Z,14.90
2018-05-06T20:11:17.807Z,14.90
2018-05-06T20:13:44.998Z,14.90
2018-05-06T20:16:11.370Z,14.80
2018-05-06T20:18:37.745Z,14.80
2018-05-06T20:21:04.137Z,14.80
2018-05-06T20:23:30.679Z,14.70
2018-05-06T20:25:57.058Z,14.70
2018-05-06T20:28:24.157Z,14.60
2018-05-06T20:30:50.681Z,14.60
2018-05-06T20:33:17.017Z,14.60
2018-05-06T20:35:43.437Z,14.50
2018-05-06T20:38:10.598Z,14.40
2018-05-06T20:40:37.216Z,14.40
2018-05-06T20:43:03.666Z,14.30
2018-05-06T20:45:30.153Z,14.20
2018-05-06T20:47:56.954Z,14.20
2018-05-06T20:50:23.289Z,14.10
2018-05-06T20:52:49.671Z,14.00
2018-05-06T20:55:16.836Z,13.90
2018-05-06T20:57:43.230Z,13.90
2018-05-06T21:00:09.708Z,13.90
2018-05-06T21:02:36.786Z,13.80
2018-05-06T21:05:03.144Z,13.70
2018-05-06T21:07:29.640Z,13.70
2018-05-06T21:09:56.031Z,13.70
2018-05-06T21:12:23.368Z,13.60
2018-05-06T21:14:49.705Z,13.60
2018-05-06T21:17:16.172Z,13.50
2018-05-06T21:19:43.476Z,13.40
2018-05-06T21:22:10.848Z,13.30
2018-05-06T21:24:37.229Z,13.30
2018-05-06T21:27:03.553Z,13.20
2018-05-06T21:29:30.635Z,13.00
2018-05-06T21:31:56.990Z,13.00
2018-05-06T21:34:23.440Z,13.00
2018-05-06T21:36:49.878Z,12.90
2018-05-06T21:39:16.891Z,12.80
2018-05-06T21:41:43.260Z,12.80
2018-05-06T21:44:09.565Z,12.70
2018-05-06T21:46:35.854Z,12.60
2018-05-06T21:49:02.937Z,12.50
2018-05-06T21:51:29.336Z,12.50
2018-05-06T21:53:55.709Z,12.50
2018-05-06T21:56:22.054Z,12.50
2018-05-06T21:58:48.385Z,12.40
2018-05-06T22:01:19.590Z,12.40
2018-05-06T22:03:45.981Z,12.30
2018-05-06T22:06:12.290Z,12.30
2018-05-06T22:08:38.618Z,12.20
2018-05-06T22:11:04.958Z,12.20
2018-05-06T22:13:31.301Z,12.20
2018-05-06T22:15:58.058Z,12.20
2018-05-06T22:18:25.144Z,12.20
2018-05-06T22:20:51.527Z,12.10
2018-05-06T22:23:18.667Z,12.20
2018-05-06T22:25:45.137Z,12.20
2018-05-06T22:28:12.206Z,12.20
2018-05-06T22:30:38.631Z,12.10
2018-05-06T22:33:06.558Z,12.10
2018-05-06T22:35:32.917Z,12.10
2018-05-06T22:37:59.375Z,12.10
2018-05-06T22:40:25.736Z,12.10
2018-05-06T22:42:52.087Z,12.00
2018-05-06T22:45:18.564Z,11.90
2018-05-06T22:47:45.684Z,11.80
2018-05-06T22:50:12.124Z,11.80
2018-05-06T22:52:38.637Z,11.70
2018-05-06T22:55:05.028Z,11.70
2018-05-06T22:57:31.373Z,11.60
2018-05-06T22:59:57.703Z,11.60
2018-05-06T23:02:24.077Z,11.60
2018-05-06T23:04:50.389Z,11.50
2018-05-06T23:07:16.729Z,11.50
2018-05-06T23:09:43.084Z,11.50
2018-05-06T23:12:10.230Z,11.40
2018-05-06T23:14:38.408Z,11.40
2018-05-06T23:17:04.808Z,11.40
2018-05-06T23:19:31.131Z,11.40
2018-05-06T23:21:57.484Z,11.40
2018-05-06T23:24:23.838Z,11.30
2018-05-06T23:26:50.143Z,11.30
2018-05-06T23:29:16.521Z,11.30
2018-05-06T23:31:42.797Z,11.20
2018-05-06T23:34:09.313Z,11.10
2018-05-06T23:36:35.636Z,11.10
2018-05-06T23:39:02.725Z,11.10
2018-05-06T23:41:29.037Z,11.00
2018-05-06T23:43:55.351Z,11.00
2018-05-06T23:46:21.661Z,11.00
2018-05-06T23:48:48.728Z,11.00
2018-05-06T23:51:15.761Z,10.90
2018-05-06T23:53:42.847Z,10.90
2018-05-06T23:56:09.209Z,10.90
2018-05-06T23:58:35.563Z,10.90
